createdAt,value
2023-12-01T00:01:27.337Z,-12.85
2023-12-01T00:03:54.769Z,-12.82
2023-12-01T00:06:22.188Z,-13.01
2023-12-01T00:08:49.526Z,-12.90
2023-12-01T00:11:16.852Z,-13.04
2023-12-01T00:13:44.166Z,-13.10
2023-12-01T00:16:11.707Z,-13.23
2023-12-01T00:18:39.133Z,-13.37
2023-12-01T00:21:06.810Z,-13.52
2023-12-01T00:23:34.209Z,-13.70
2023-12-01T00:26:01.521Z,-13.63
2023-12-01T00:28:28.990Z,-13.52
2023-12-01T00:30:56.400Z,-13.41
2023-12-01T00:33:24.141Z,-13.39
2023-12-01T00:35:51.535Z,-13.34
2023-12-01T00:38:18.897Z,-13.19
2023-12-01T00:40:46.294Z,-13.12
2023-12-01T00:43:14.716Z,-13.46
2023-12-01T00:45:42.228Z,-13.45
2023-12-01T00:48:09.689Z,-13.47
2023-12-01T00:50:37.283Z,-13.54
2023-12-01T00:53:04.516Z,-13.70
2023-12-01T00:55:31.800Z,-13.73
2023-12-01T00:57:59.277Z,-13.75
2023-12-01T01:00:26.978Z,-13.71
2023-12-01T01:02:54.380Z,-13.77
2023-12-01T01:05:22.161Z,-13.61
2023-12-01T01:07:49.506Z,-13.71
2023-12-01T01:10:16.945Z,-13.70
2023-12-01T01:12:44.427Z,-13.69
2023-12-01T01:15:11.844Z,-13.76
2023-12-01T01:17:39.323Z,-13.78
2023-12-01T01:20:07.191Z,-13.64
2023-12-01T01:22:34.801Z,-13.66
2023-12-01T01:25:02.211Z,-13.78
2023-12-01T01:27:29.721Z,-13.55
2023-12-01T01:29:57.044Z,-13.58
2023-12-01T01:32:24.800Z,-13.71
2023-12-01T01:34:52.226Z,-13.83
2023-12-01T01:37:19.574Z,-13.76
2023-12-01T01:39:46.996Z,-13.79
2023-12-01T01:42:14.514Z,-13.67
2023-12-01T01:44:41.877Z,-13.74
2023-12-01T01:47:10.126Z,-13.74
2023-12-01T01:49:38.528Z,-13.64
2023-12-01T01:52:06.503Z,-13.61
2023-12-01T01:54:34.086Z,-13.40
2023-12-01T01:57:02.321Z,-13.36
2023-12-01T01:59:29.801Z,-13.28
2023-12-01T02:01:58.561Z,-13.33
2023-12-01T02:04:26.669Z,-13.03
2023-12-01T02:06:54.695Z,-13.01
2023-12-01T02:09:22.016Z,-12.81
2023-12-01T02:11:49.812Z,-12.82
2023-12-01T02:14:17.118Z,-12.68
2023-12-01T02:16:47.631Z,-12.56
2023-12-01T02:19:15.709Z,-12.54
2023-12-01T02:21:49.617Z,-12.55
2023-12-01T02:24:16.959Z,-12.31
2023-12-01T02:26:44.403Z,-12.46
2023-12-01T02:29:11.769Z,-12.35
2023-12-01T02:31:39.251Z,-12.35
2023-12-01T02:34:07.459Z,-12.26
2023-12-01T02:36:34.993Z,-12.09
2023-12-01T02:39:02.872Z,-12.09
2023-12-01T02:41:30.737Z,-11.97
2023-12-01T02:43:58.597Z,-11.85
2023-12-01T02:46:26.310Z,-11.95
2023-12-01T02:48:53.779Z,-11.85
2023-12-01T02:51:21.912Z,-11.79
2023-12-01T02:53:49.135Z,-11.53
2023-12-01T02:56:16.552Z,-11.73
2023-12-01T02:58:43.914Z,-11.49
2023-12-01T03:01:11.428Z,-11.43
2023-12-01T03:03:38.920Z,-11.33
2023-12-01T03:06:06.617Z,-11.25
2023-12-01T03:08:33.966Z,-11.25
2023-12-01T03:11:01.253Z,-11.29
2023-12-01T03:13:28.654Z,-11.17
2023-12-01T03:15:57.848Z,-11.11
2023-12-01T03:18:25.320Z,-11.07
2023-12-01T03:20:52.623Z,-11.02
2023-12-01T03:23:19.918Z,-10.83
2023-12-01T03:25:47.232Z,-10.79
2023-12-01T03:28:16.448Z,-10.71
2023-12-01T03:30:44.275Z,-10.77
2023-12-01T03:33:13.931Z,-10.58
2023-12-01T03:35:41.438Z,-10.62
2023-12-01T03:38:08.816Z,-10.57
2023-12-01T03:40:36.139Z,-10.73
2023-12-01T03:43:03.404Z,-10.56
2023-12-01T03:45:30.879Z,-10.46
2023-12-01T03:47:58.177Z,-10.46
2023-12-01T03:50:25.505Z,-10.40
2023-12-01T03:52:53.082Z,-10.33
2023-12-01T03:55:20.663Z,-10.33
2023-12-01T03:57:48.121Z,-10.41
2023-12-01T04:00:19.355Z,-10.30
2023-12-01T04:02:48.510Z,-10.24
2023-12-01T04:05:23.835Z,-10.28
2023-12-01T04:07:55.631Z,-10.29
2023-12-01T04:10:27.503Z,-10.26
2023-12-01T04:12:56.424Z,-10.12
2023-12-01T04:15:27.839Z,-10.17
2023-12-01T04:17:55.853Z,-10.15
2023-12-01T04:20:23.860Z,-10.17
2023-12-01T04:22:53.453Z,-10.14
2023-12-01T04:25:21.467Z,-10.21
2023-12-01T04:27:49.326Z,-10.04
2023-12-01T04:30:17.970Z,-10.10
2023-12-01T04:32:57.648Z,-10.02
2023-12-01T04:35:31.172Z,-10.14
2023-12-01T04:38:01.288Z,-10.17
2023-12-01T04:40:30.987Z,-10.21
2023-12-01T04:43:00.991Z,-10.17
2023-12-01T04:45:32.889Z,-10.10
2023-12-01T04:48:00.739Z,-10.05
2023-12-01T04:50:30.022Z,-10.08
2023-12-01T04:52:59.008Z,-10.07
2023-12-01T04:55:28.381Z,-9.99
2023-12-01T04:57:57.768Z,-10.24
2023-12-01T05:00:28.127Z,-10.07
2023-12-01T05:03:02.730Z,-10.01
2023-12-01T05:05:32.935Z,-10.23
2023-12-01T05:08:02.715Z,-10.14
2023-12-01T05:10:32.123Z,-10.03
2023-12-01T05:13:03.172Z,-10.07
2023-12-01T05:15:32.423Z,-9.93
2023-12-01T05:18:02.397Z,-9.86
2023-12-01T05:20:30.568Z,-9.92
2023-12-01T05:23:12.315Z,-9.91
2023-12-01T05:25:43.287Z,-9.76
2023-12-01T05:28:12.497Z,-9.74
2023-12-01T05:30:42.278Z,-9.71
2023-12-01T05:33:10.273Z,-9.73
2023-12-01T05:35:38.911Z,-9.62
2023-12-01T05:38:06.943Z,-9.51
2023-12-01T05:40:38.142Z,-9.42
2023-12-01T05:43:08.068Z,-9.43
2023-12-01T05:45:37.505Z,-9.59
2023-12-01T05:48:09.288Z,-9.51
2023-12-01T05:50:38.326Z,-9.30
2023-12-01T05:53:08.177Z,-9.29
2023-12-01T05:55:38.036Z,-9.44
2023-12-01T05:58:12.100Z,-9.35
2023-12-01T06:00:40.720Z,-9.32
2023-12-01T06:03:10.753Z,-9.40
2023-12-01T06:05:39.895Z,-9.26
2023-12-01T06:08:10.595Z,-9.35
2023-12-01T06:10:38.168Z,-9.39
2023-12-01T06:13:06.272Z,-9.40
2023-12-01T06:15:33.962Z,-9.38
2023-12-01T06:18:02.838Z,-9.22
2023-12-01T06:20:32.866Z,-9.34
2023-12-01T06:23:02.881Z,-9.44
2023-12-01T06:25:32.909Z,-9.17
2023-12-01T06:28:03.176Z,-9.21
2023-12-01T06:30:36.836Z,-9.23
2023-12-01T06:33:07.775Z,-9.10
2023-12-01T06:35:35.356Z,-9.21
2023-12-01T06:38:02.776Z,-9.30
2023-12-01T06:40:35.272Z,-9.19
2023-12-01T06:43:12.288Z,-9.23
2023-12-01T06:45:41.952Z,-9.10
2023-12-01T06:48:09.491Z,-9.12
2023-12-01T06:50:36.846Z,-9.20
2023-12-01T06:53:04.204Z,-9.23
2023-12-01T06:55:31.572Z,-9.23
2023-12-01T06:57:59.098Z,-9.02
2023-12-01T07:00:35.402Z,-9.17
2023-12-01T07:03:09.921Z,-9.06
2023-12-01T07:05:41.670Z,-8.97
2023-12-01T07:08:16.235Z,-9.14
2023-12-01T07:10:44.966Z,-9.11
2023-12-01T07:13:12.388Z,-8.97
2023-12-01T07:15:40.152Z,-9.08
2023-12-01T07:18:08.437Z,-9.03
2023-12-01T07:20:35.868Z,-9.11
2023-12-01T07:23:06.048Z,-9.07
2023-12-01T07:25:35.237Z,-9.16
2023-12-01T07:28:05.015Z,-8.91
2023-12-01T07:30:32.577Z,-9.07
2023-12-01T07:33:02.089Z,-9.10
2023-12-01T07:35:29.804Z,-9.04
2023-12-01T07:37:57.151Z,-9.13
2023-12-01T07:40:26.084Z,-9.10
2023-12-01T07:42:57.069Z,-8.96
2023-12-01T07:45:25.184Z,-9.10
2023-12-01T07:47:54.671Z,-9.16
2023-12-01T07:50:23.635Z,-9.16
2023-12-01T07:52:52.082Z,-8.98
2023-12-01T07:55:23.333Z,-9.18
2023-12-01T07:57:51.087Z,-9.18
2023-12-01T08:00:19.551Z,-9.17
2023-12-01T08:02:48.964Z,-9.17
2023-12-01T08:05:18.059Z,-9.29
2023-12-01T08:07:48.368Z,-9.22
2023-12-01T08:10:18.751Z,-9.30
2023-12-01T08:12:47.772Z,-9.25
2023-12-01T08:15:16.066Z,-9.34
2023-12-01T08:17:45.499Z,-9.35
2023-12-01T08:20:13.951Z,-9.25
2023-12-01T08:22:44.790Z,-9.19
2023-12-01T08:25:14.145Z,-9.01
2023-12-01T08:27:41.932Z,-8.99
2023-12-01T08:30:10.375Z,-9.13
2023-12-01T08:32:45.731Z,-9.08
2023-12-01T08:35:13.278Z,-9.06
2023-12-01T08:37:40.644Z,-9.14
2023-12-01T08:40:14.248Z,-9.19
2023-12-01T08:42:43.451Z,-9.02
2023-12-01T08:45:11.768Z,-9.15
2023-12-01T08:47:40.831Z,-9.17
2023-12-01T08:50:10.193Z,-9.04
2023-12-01T08:52:41.903Z,-9.08
2023-12-01T08:55:11.756Z,-9.18
2023-12-01T08:57:39.271Z,-9.21
2023-12-01T09:00:09.490Z,-9.01
2023-12-01T09:02:36.981Z,-9.06
2023-12-01T09:05:05.730Z,-9.19
2023-12-01T09:07:33.342Z,-9.12
2023-12-01T09:10:01.332Z,-9.20
2023-12-01T09:12:28.703Z,-9.01
2023-12-01T09:14:56.464Z,-9.27
2023-12-01T09:17:24.349Z,-9.02
2023-12-01T09:19:52.134Z,-9.49
2023-12-01T09:22:19.644Z,-9.18
2023-12-01T09:24:47.529Z,-9.13
2023-12-01T09:27:15.332Z,-9.20
2023-12-01T09:29:43.107Z,-9.07
2023-12-01T09:32:10.494Z,-9.18
2023-12-01T09:34:37.850Z,-9.18
2023-12-01T09:37:05.462Z,-9.12
2023-12-01T09:39:32.781Z,-9.07
2023-12-01T09:42:07.885Z,-9.15
2023-12-01T09:44:36.651Z,-9.11
2023-12-01T09:47:11.676Z,-9.19
2023-12-01T09:49:39.601Z,-9.18
2023-12-01T09:52:07.169Z,-9.06
2023-12-01T09:54:34.537Z,-8.99
2023-12-01T09:57:10.718Z,-9.07
2023-12-01T09:59:39.517Z,-9.27
2023-12-01T10:02:07.036Z,-9.22
2023-12-01T10:04:35.014Z,-9.23
2023-12-01T10:07:04.835Z,-9.36
2023-12-01T10:09:36.623Z,-9.21
2023-12-01T10:12:09.490Z,-9.03
2023-12-01T10:14:38.049Z,-9.03
2023-12-01T10:17:07.171Z,-9.23
2023-12-01T10:19:35.904Z,-9.09
2023-12-01T10:22:03.948Z,-9.29
2023-12-01T10:24:32.489Z,-9.13
2023-12-01T10:27:04.488Z,-9.06
2023-12-01T10:29:33.568Z,-9.19
2023-12-01T10:32:06.355Z,-9.10
2023-12-01T10:34:33.993Z,-9.32
2023-12-01T10:37:01.965Z,-9.18
2023-12-01T10:39:30.966Z,-9.24
2023-12-01T10:42:02.882Z,-9.12
2023-12-01T10:44:33.572Z,-9.30
2023-12-01T10:47:03.699Z,-9.28
2023-12-01T10:49:32.836Z,-9.36
2023-12-01T10:52:02.225Z,-9.39
2023-12-01T10:54:30.061Z,-9.55
2023-12-01T10:57:08.539Z,-9.54
2023-12-01T10:59:38.418Z,-9.57
2023-12-01T11:02:07.147Z,-9.64
2023-12-01T11:04:35.166Z,-9.75
2023-12-01T11:07:35.003Z,-9.59
2023-12-01T11:10:14.456Z,-9.63
2023-12-01T11:13:06.407Z,-9.62
2023-12-01T11:15:38.120Z,-9.85
2023-12-01T11:18:10.039Z,-9.79
2023-12-01T11:20:39.635Z,-10.24
2023-12-01T11:23:25.110Z,-9.83
2023-12-01T11:26:07.453Z,-10.02
2023-12-01T11:28:45.079Z,-10.06
2023-12-01T11:31:37.320Z,-10.07
2023-12-01T11:34:06.604Z,-10.03
2023-12-01T11:36:38.493Z,-9.92
2023-12-01T11:39:18.155Z,-9.91
2023-12-01T11:41:45.805Z,-9.90
2023-12-01T11:44:17.201Z,-9.99
2023-12-01T11:46:46.140Z,-10.03
2023-12-01T11:49:16.455Z,-10.07
2023-12-01T11:51:47.237Z,-10.08
2023-12-01T11:54:15.000Z,-10.00
2023-12-01T11:56:48.873Z,-9.98
2023-12-01T11:59:16.106Z,-10.02
2023-12-01T12:01:43.478Z,-10.36
2023-12-01T12:04:14.749Z,-10.30
2023-12-01T12:06:43.956Z,-10.29
2023-12-01T12:09:20.106Z,-10.50
2023-12-01T12:11:54.987Z,-10.43
2023-12-01T12:14:27.078Z,-10.61
2023-12-01T12:16:55.082Z,-10.53
2023-12-01T12:19:23.261Z,-10.63
2023-12-01T12:21:51.547Z,-10.72
2023-12-01T12:24:18.902Z,-10.78
2023-12-01T12:26:56.014Z,-11.06
2023-12-01T12:29:25.365Z,-11.22
2023-12-01T12:31:53.400Z,-11.50
2023-12-01T12:34:22.912Z,-11.51
2023-12-01T12:36:52.448Z,-11.77
2023-12-01T12:39:25.311Z,-12.01
2023-12-01T12:42:01.574Z,-12.16
2023-12-01T12:44:35.050Z,-12.44
2023-12-01T12:47:06.804Z,-12.37
2023-12-01T12:49:35.869Z,-12.57
2023-12-01T12:52:04.677Z,-12.49
2023-12-01T12:54:32.681Z,-12.63
2023-12-01T12:57:00.495Z,-12.59
2023-12-01T12:59:28.126Z,-12.54
2023-12-01T13:01:55.544Z,-12.64
2023-12-01T13:04:23.164Z,-12.56
2023-12-01T13:06:51.540Z,-12.72
2023-12-01T13:09:19.602Z,-12.67
2023-12-01T13:11:47.525Z,-12.88
2023-12-01T13:14:15.948Z,-12.84
2023-12-01T13:16:52.682Z,-12.96
2023-12-01T13:19:25.119Z,-12.98
2023-12-01T13:21:55.854Z,-13.10
2023-12-01T13:24:26.753Z,-13.22
2023-12-01T13:26:55.661Z,-13.20
2023-12-01T13:29:23.248Z,-13.05
2023-12-01T13:31:51.014Z,-13.19
2023-12-01T13:34:19.661Z,-13.28
2023-12-01T13:36:48.253Z,-13.38
2023-12-01T13:39:19.053Z,-13.42
2023-12-01T13:41:46.583Z,-13.48
2023-12-01T13:44:14.089Z,-13.52
2023-12-01T13:46:41.814Z,-13.61
2023-12-01T13:49:09.252Z,-13.81
2023-12-01T13:51:36.897Z,-13.78
2023-12-01T13:54:04.437Z,-14.32
2023-12-01T13:56:31.862Z,-13.94
2023-12-01T13:58:59.214Z,-13.86
2023-12-01T14:01:27.105Z,-14.18
2023-12-01T14:03:54.563Z,-14.20
2023-12-01T14:06:22.099Z,-14.26
2023-12-01T14:08:49.603Z,-14.22
2023-12-01T14:11:17.025Z,-14.51
2023-12-01T14:13:44.281Z,-14.51
2023-12-01T14:16:11.993Z,-14.36
2023-12-01T14:18:39.435Z,-14.67
2023-12-01T14:21:07.087Z,-14.77
2023-12-01T14:23:34.492Z,-14.70
2023-12-01T14:26:01.843Z,-14.74
2023-12-01T14:28:29.569Z,-14.87
2023-12-01T14:30:57.761Z,-14.83
2023-12-01T14:33:25.384Z,-14.82
2023-12-01T14:35:53.304Z,-14.82
2023-12-01T14:38:20.699Z,-14.94
2023-12-01T14:40:48.453Z,-14.82
2023-12-01T14:43:15.819Z,-14.91
2023-12-01T14:45:43.383Z,-14.91
2023-12-01T14:48:11.017Z,-14.95
2023-12-01T14:50:38.362Z,-14.84
2023-12-01T14:53:05.699Z,-15.03
2023-12-01T14:55:33.007Z,-14.93
2023-12-01T14:58:00.873Z,-15.17
2023-12-01T15:00:28.465Z,-15.15
2023-12-01T15:02:55.836Z,-15.05
2023-12-01T15:05:23.178Z,-15.24
2023-12-01T15:07:50.514Z,-15.30
2023-12-01T15:10:18.151Z,-15.35
2023-12-01T15:12:45.451Z,-15.54
2023-12-01T15:15:13.230Z,-15.58
2023-12-01T15:17:40.702Z,-15.52
2023-12-01T15:20:10.123Z,-15.49
2023-12-01T15:22:37.472Z,-15.65
2023-12-01T15:25:05.098Z,-15.73
2023-12-01T15:27:32.525Z,-16.08
2023-12-01T15:29:59.955Z,-15.72
2023-12-01T15:32:27.372Z,-16.06
2023-12-01T15:34:55.522Z,-16.11
2023-12-01T15:37:25.543Z,-16.12
2023-12-01T15:39:52.994Z,-16.12
2023-12-01T15:42:20.366Z,-16.18
2023-12-01T15:44:50.410Z,-16.03
2023-12-01T15:47:17.906Z,-16.39
2023-12-01T15:49:45.256Z,-16.35
2023-12-01T15:52:12.789Z,-16.29
2023-12-01T15:54:42.485Z,-16.24
2023-12-01T15:57:11.337Z,-16.41
2023-12-01T15:59:39.060Z,-16.46
2023-12-01T16:02:06.389Z,-16.51
2023-12-01T16:04:35.718Z,-16.53
2023-12-01T16:07:03.591Z,-16.56
2023-12-01T16:09:31.802Z,-16.52
2023-12-01T16:11:59.180Z,-16.64
2023-12-01T16:14:26.592Z,-16.64
2023-12-01T16:16:54.740Z,-16.61
2023-12-01T16:19:22.122Z,-16.82
2023-12-01T16:21:51.195Z,-16.76
2023-12-01T16:24:22.560Z,-16.81
2023-12-01T16:26:55.608Z,-16.96
2023-12-01T16:29:23.305Z,-16.89
2023-12-01T16:31:50.643Z,-16.95
2023-12-01T16:34:19.387Z,-17.03
2023-12-01T16:36:53.460Z,-16.94
2023-12-01T16:39:22.570Z,-16.84
2023-12-01T16:41:50.026Z,-16.85
2023-12-01T16:44:18.098Z,-16.88
2023-12-01T16:46:47.014Z,-16.87
2023-12-01T16:49:14.357Z,-16.97
2023-12-01T16:51:41.757Z,-16.83
2023-12-01T16:54:09.402Z,-17.02
2023-12-01T16:56:36.944Z,-16.92
2023-12-01T16:59:04.311Z,-16.92
